Agua Comprida, Brazil
Current Conditions -  °F | °C
As of 8:00 AM on Thursday 23 Oct 2014 (Local Time) from SBUR Reporting Station
Clear Clear  
Wind Chill: 70°   Ceiling: Unl
Heat Index: 70°   Visibility: 6mi
Dew Point: 59°   Wind: 12mph
Humidity: 68%   Direction: 60°ENE
Pressure: 30.12"   Gusts: NA
Location:  20.07°S, 48.13°W
Report Text: SBUR 231000Z 06010KT CAVOK 21/15 Q1020
Loading
Personal Weather Stations






























Interactive Weather Map
Tropical Storm Tracking
New forecast layout! Learn more

10-Day Weather Forecast

Advertisements
Track Severe Weather on mobile